Time;durP1;ratioP1;P1;durP2;ratioP2;P2;SDS_P1;SDS_P2;PMS_P1;PMS_P2;Temp;Humidity;BMP_temperature;BMP_pressure;BME280_temperature;BME280_humidity;BME280_pressure;Samples;Min_cycle;Max_cycle;Signal;HPM_P1;HPM_P2
2022/02/23 00:00:13;;;;;;;6.77;1.80;;;10.10;99.90;;;;;;4981707;28;20214;-78
2022/02/23 00:02:39;;;;;;;13.02;2.20;;;10.20;99.90;;;;;;4983214;28;20639;-79
2022/02/23 00:05:05;;;;;;;7.13;1.67;;;10.20;99.90;;;;;;4980736;28;20191;-78
2022/02/23 00:07:31;;;;;;;15.05;2.15;;;10.20;99.90;;;;;;4983803;28;20187;-78
2022/02/23 00:09:57;;;;;;;8.57;1.87;;;10.20;99.90;;;;;;4980812;28;20211;-77
2022/02/23 00:12:22;;;;;;;5.60;1.40;;;10.20;99.90;;;;;;4981231;28;20188;-77
2022/02/23 00:14:48;;;;;;;9.00;1.70;;;10.20;99.90;;;;;;4980313;28;20190;-77
2022/02/23 00:17:14;;;;;;;6.97;1.30;;;10.10;99.90;;;;;;4985591;28;20270;-77
2022/02/23 00:19:39;;;;;;;7.67;1.37;;;10.10;99.90;;;;;;4985811;28;20580;-78
2022/02/23 00:22:06;;;;;;;7.80;1.70;;;10.10;99.90;;;;;;4978249;28;20647;-78
2022/02/23 00:24:31;;;;;;;5.93;1.75;;;10.00;99.90;;;;;;4980011;28;20282;-78
2022/02/23 00:26:57;;;;;;;6.00;1.60;;;10.00;99.90;;;;;;4984443;28;20262;-78
2022/02/23 00:29:23;;;;;;;6.23;1.67;;;9.90;99.90;;;;;;4980806;28;20299;-77
2022/02/23 00:31:49;;;;;;;7.10;1.90;;;9.90;99.90;;;;;;4980849;28;20262;-77
2022/02/23 00:34:14;;;;;;;9.43;1.73;;;9.80;99.90;;;;;;4982609;28;20179;-77
2022/02/23 00:36:41;;;;;;;6.47;1.75;;;9.80;99.90;;;;;;4967434;28;20190;-78
2022/02/23 00:39:07;;;;;;;5.22;1.80;;;9.70;99.90;;;;;;4983268;28;20206;-78
2022/02/23 00:41:32;;;;;;;9.80;2.40;;;9.70;99.90;;;;;;4985955;28;20533;-77
2022/02/23 00:43:58;;;;;;;10.40;2.00;;;9.70;99.90;;;;;;4983187;28;20554;-78
2022/02/23 00:46:24;;;;;;;10.37;1.80;;;9.60;99.90;;;;;;4981282;28;20180;-78
2022/02/23 00:48:50;;;;;;;6.25;1.55;;;9.60;99.90;;;;;;4981254;28;20211;-78
2022/02/23 00:51:16;;;;;;;4.33;1.23;;;9.50;99.90;;;;;;4980838;28;20182;-78
2022/02/23 00:53:42;;;;;;;7.22;1.83;;;9.50;99.90;;;;;;4981773;28;20625;-78
2022/02/23 00:56:08;;;;;;;11.50;1.97;;;9.50;99.90;;;;;;4993093;28;20207;-78
2022/02/23 00:58:34;;;;;;;9.57;1.67;;;9.40;99.90;;;;;;4967075;28;20183;-78
2022/02/23 01:00:59;;;;;;;6.20;1.07;;;9.40;99.90;;;;;;4980566;28;20184;-78
2022/02/23 01:03:25;;;;;;;8.57;1.40;;;9.40;99.90;;;;;;4980474;28;20282;-78
2022/02/23 01:05:51;;;;;;;6.77;1.43;;;9.30;99.90;;;;;;4981432;28;20206;-77
2022/02/23 01:08:17;;;;;;;8.85;1.77;;;9.30;99.90;;;;;;4982955;28;20581;-78
2022/02/23 01:10:43;;;;;;;6.50;1.40;;;9.30;99.90;;;;;;4984307;28;20722;-78
2022/02/23 01:13:10;;;;;;;7.45;1.63;;;9.20;99.90;;;;;;4975882;28;20274;-78
2022/02/23 01:15:35;;;;;;;8.02;2.45;;;9.20;99.90;;;;;;4982265;28;20220;-78
2022/02/23 01:18:02;;;;;;;6.10;1.40;;;9.20;99.90;;;;;;4968152;28;20614;-78
2022/02/23 01:20:27;;;;;;;5.43;1.90;;;9.20;99.90;;;;;;4988537;28;20724;-78
2022/02/23 01:22:56;;;;;;;6.30;1.90;;;9.10;99.90;;;;;;4984172;28;20183;-78
2022/02/23 01:25:24;;;;;;;6.22;1.63;;;9.10;99.90;;;;;;4979043;28;20175;-78
2022/02/23 01:27:51;;;;;;;5.05;1.58;;;9.00;99.90;;;;;;4980122;28;20528;-77
2022/02/23 01:30:17;;;;;;;7.75;1.65;;;9.00;99.90;;;;;;4979650;28;20210;-78
2022/02/23 01:32:43;;;;;;;5.07;1.50;;;9.00;99.90;;;;;;4983269;28;20171;-78
2022/02/23 01:35:09;;;;;;;5.20;1.95;;;8.90;99.90;;;;;;4984194;28;20179;-77
2022/02/23 01:37:35;;;;;;;7.50;1.40;;;8.90;99.90;;;;;;4982977;28;20269;-78
2022/02/23 01:40:01;;;;;;;5.43;1.20;;;8.90;99.90;;;;;;4980388;28;20283;-77
2022/02/23 01:42:27;;;;;;;8.43;1.70;;;8.90;99.90;;;;;;4983746;28;20178;-77
2022/02/23 01:44:53;;;;;;;4.85;1.10;;;8.80;99.90;;;;;;4980632;28;20613;-77
2022/02/23 01:47:19;;;;;;;7.85;1.40;;;8.80;99.90;;;;;;4982593;28;20183;-77
2022/02/23 01:49:45;;;;;;;8.33;2.10;;;8.80;99.90;;;;;;4964240;28;20585;-77
2022/02/23 01:52:11;;;;;;;11.27;2.57;;;8.70;99.90;;;;;;4971866;28;20179;-77
2022/02/23 01:54:37;;;;;;;8.93;3.13;;;8.70;99.90;;;;;;4983785;28;20266;-77
2022/02/23 01:57:03;;;;;;;9.40;4.00;;;8.70;99.90;;;;;;4983558;28;20538;-77
2022/02/23 01:59:28;;;;;;;12.03;3.60;;;8.70;99.90;;;;;;4981596;28;20243;-77
2022/02/23 02:01:54;;;;;;;9.87;3.07;;;8.60;99.90;;;;;;4985285;28;20697;-77
2022/02/23 02:04:23;;;;;;;15.00;4.50;;;8.60;99.90;;;;;;4986097;28;20255;-77
2022/02/23 02:06:50;;;;;;;8.07;4.07;;;8.60;99.90;;;;;;4986325;28;20947;-77
2022/02/23 02:09:16;;;;;;;8.80;2.50;;;8.60;99.90;;;;;;4951086;28;20215;-77
2022/02/23 02:11:42;;;;;;;7.97;3.03;;;8.50;99.90;;;;;;4986792;28;20248;-77
2022/02/23 02:14:08;;;;;;;16.00;3.77;;;8.50;99.90;;;;;;4975216;28;20180;-77
2022/02/23 02:16:34;;;;;;;9.20;2.37;;;8.50;99.90;;;;;;4981942;28;20179;-77
2022/02/23 02:19:03;;;;;;;11.55;1.70;;;8.40;99.90;;;;;;4981525;28;20614;-77
2022/02/23 02:21:30;;;;;;;6.88;1.70;;;8.40;99.90;;;;;;4987216;28;20192;-77
2022/02/23 02:23:56;;;;;;;7.85;1.10;;;8.40;99.90;;;;;;4987504;28;20186;-79
2022/02/23 02:26:22;;;;;;;7.93;1.70;;;8.40;99.90;;;;;;4982232;28;20188;-77
2022/02/23 02:28:47;;;;;;;6.43;2.33;;;8.30;99.90;;;;;;4985255;28;20211;-77
2022/02/23 02:31:13;;;;;;;4.43;1.23;;;8.30;99.90;;;;;;4982670;28;20183;-77
2022/02/23 02:33:39;;;;;;;7.50;2.20;;;8.20;99.90;;;;;;4984263;28;20527;-77
2022/02/23 02:36:04;;;;;;;6.30;1.30;;;8.20;99.90;;;;;;4984088;28;20184;-77
2022/02/23 02:38:31;;;;;;;10.18;1.88;;;8.20;99.90;;;;;;4982360;28;20186;-77
2022/02/23 02:40:57;;;;;;;7.67;1.40;;;8.20;99.90;;;;;;4984903;28;20258;-77
2022/02/23 02:43:22;;;;;;;5.77;1.63;;;8.20;99.90;;;;;;4990413;28;20186;-77
2022/02/23 02:45:48;;;;;;;6.10;2.83;;;8.10;99.90;;;;;;4985894;28;20555;-77
2022/02/23 02:48:14;;;;;;;9.70;2.07;;;8.10;99.90;;;;;;4987318;28;20209;-79
2022/02/23 02:50:40;;;;;;;8.20;1.50;;;8.10;99.90;;;;;;4968470;28;20592;-79
2022/02/23 02:53:07;;;;;;;6.15;1.52;;;8.10;99.90;;;;;;4985172;28;20579;-79
2022/02/23 02:55:33;;;;;;;9.03;2.60;;;8.10;99.90;;;;;;4982174;28;20270;-79
2022/02/23 02:57:58;;;;;;;9.43;1.83;;;8.00;99.90;;;;;;4982451;28;20186;-79
2022/02/23 03:00:25;;;;;;;3.87;2.13;;;8.00;99.90;;;;;;4982340;28;20207;-79
2022/02/23 03:02:51;;;;;;;5.50;1.60;;;8.00;99.90;;;;;;4983855;28;20214;-79
2022/02/23 03:05:17;;;;;;;6.27;1.80;;;8.00;99.90;;;;;;4983766;28;20215;-79
2022/02/23 03:07:42;;;;;;;4.90;1.40;;;8.00;99.90;;;;;;4990853;28;20179;-78
2022/02/23 03:10:09;;;;;;;6.55;2.00;;;7.90;99.90;;;;;;4982353;28;20668;-78
2022/02/23 03:12:35;;;;;;;6.85;1.58;;;7.90;99.90;;;;;;4982813;28;20193;-78
2022/02/23 03:15:01;;;;;;;5.00;1.50;;;7.90;99.90;;;;;;4982559;28;20180;-78
2022/02/23 03:17:27;;;;;;;8.30;1.60;;;7.90;99.90;;;;;;4983960;28;20175;-78
2022/02/23 03:19:54;;;;;;;4.73;1.77;;;7.80;99.90;;;;;;4965570;28;20694;-79
2022/02/23 03:22:20;;;;;;;4.45;1.48;;;7.80;99.90;;;;;;4982765;28;20184;-79
2022/02/23 03:24:45;;;;;;;3.37;1.37;;;7.80;99.90;;;;;;4966776;28;20198;-79
2022/02/23 03:27:11;;;;;;;4.13;1.47;;;7.80;99.90;;;;;;4969459;28;20183;-79
2022/02/23 03:29:37;;;;;;;9.47;1.80;;;7.70;99.90;;;;;;4984820;28;20229;-79
2022/02/23 03:32:03;;;;;;;6.33;1.63;;;7.70;99.90;;;;;;4980472;28;20187;-79
2022/02/23 03:34:28;;;;;;;9.27;2.00;;;7.70;99.90;;;;;;4967511;28;20555;-79
2022/02/23 03:36:54;;;;;;;6.50;1.50;;;7.70;99.90;;;;;;4980549;28;20175;-77
2022/02/23 03:39:20;;;;;;;11.57;1.67;;;7.60;99.90;;;;;;4982548;28;20242;-77
2022/02/23 03:41:45;;;;;;;5.10;1.20;;;7.60;99.90;;;;;;4984276;28;20558;-79
2022/02/23 03:44:11;;;;;;;9.33;1.73;;;7.60;99.90;;;;;;4981179;28;20325;-76
2022/02/23 03:46:37;;;;;;;10.77;1.80;;;7.50;99.90;;;;;;4994719;28;20178;-77
2022/02/23 03:49:03;;;;;;;10.30;1.60;;;7.50;99.90;;;;;;4996182;28;20224;-79
2022/02/23 03:51:29;;;;;;;12.37;1.33;;;7.50;99.90;;;;;;4990941;28;20262;-77
2022/02/23 03:53:54;;;;;;;7.50;1.25;;;7.50;99.90;;;;;;4982779;28;20200;-77
2022/02/23 03:56:38;;;;;;;8.03;1.40;;;7.40;99.90;;;;;;4984155;28;20219;-76
2022/02/23 03:59:06;;;;;;;7.40;1.92;;;7.40;99.90;;;;;;4986678;28;20290;-76
2022/02/23 04:01:33;;;;;;;6.75;2.92;;;7.40;99.90;;;;;;4983189;28;20214;-78
2022/02/23 04:04:00;;;;;;;5.75;1.70;;;7.40;99.90;;;;;;4974195;28;20186;-78
2022/02/23 04:06:27;;;;;;;9.75;1.85;;;7.40;99.90;;;;;;4981596;28;20872;-79
2022/02/23 04:08:53;;;;;;;6.73;2.03;;;7.40;99.90;;;;;;4984077;28;20213;-79
2022/02/23 04:11:19;;;;;;;7.90;1.75;;;7.30;99.90;;;;;;4981458;28;20618;-79
2022/02/23 04:13:45;;;;;;;7.60;1.53;;;7.30;99.90;;;;;;4965252;28;20225;-79
2022/02/23 04:16:11;;;;;;;9.00;1.60;;;7.30;99.90;;;;;;4984994;28;20182;-79
2022/02/23 04:18:36;;;;;;;8.67;1.50;;;7.30;99.90;;;;;;4983409;28;20583;-79
2022/02/23 04:21:04;;;;;;;5.10;1.70;;;7.30;99.90;;;;;;4980435;28;20591;-78
2022/02/23 04:23:30;;;;;;;4.90;1.20;;;7.20;99.90;;;;;;4983830;28;20269;-78
2022/02/23 04:25:56;;;;;;;6.95;2.10;;;7.20;99.90;;;;;;4981633;28;20263;-79
2022/02/23 04:28:25;;;;;;;6.82;1.25;;;7.20;99.90;;;;;;4983708;28;20183;-79
2022/02/23 04:30:51;;;;;;;5.85;1.52;;;7.20;99.90;;;;;;4981437;28;20719;-79
2022/02/23 04:33:17;;;;;;;6.93;2.00;;;7.20;99.90;;;;;;4964718;28;20183;-79
2022/02/23 04:35:43;;;;;;;7.00;1.30;;;7.20;99.90;;;;;;4979449;28;20571;-79
2022/02/23 04:38:09;;;;;;;7.97;1.83;;;7.10;99.90;;;;;;4983701;28;20886;-79
2022/02/23 04:40:34;;;;;;;8.27;1.83;;;7.10;99.90;;;;;;4986523;28;20199;-79
2022/02/23 04:43:00;;;;;;;8.17;1.60;;;7.10;99.90;;;;;;4980796;28;20175;-79
2022/02/23 04:45:27;;;;;;;6.43;1.30;;;7.10;99.90;;;;;;4982630;28;20198;-79
2022/02/23 04:47:52;;;;;;;15.38;2.47;;;7.10;99.90;;;;;;4983032;28;20180;-79
2022/02/23 04:50:18;;;;;;;4.97;1.77;;;7.10;99.90;;;;;;4981059;28;20315;-79
2022/02/23 04:52:44;;;;;;;5.03;1.50;;;7.10;99.90;;;;;;4983670;28;20639;-78
2022/02/23 04:55:09;;;;;;;6.83;1.73;;;7.10;99.90;;;;;;4984929;28;20656;-79
2022/02/23 04:57:35;;;;;;;10.90;1.50;;;7.00;99.90;;;;;;4987045;28;20201;-79
2022/02/23 05:00:01;;;;;;;4.30;1.50;;;7.00;99.90;;;;;;4984924;28;20289;-78
2022/02/23 05:02:26;;;;;;;9.20;2.00;;;7.00;99.90;;;;;;4964474;28;20187;-79
2022/02/23 05:04:53;;;;;;;10.85;1.60;;;7.00;99.90;;;;;;4983899;28;20270;-79
2022/02/23 05:07:20;;;;;;;5.23;1.60;;;7.00;99.90;;;;;;4981751;28;20270;-79
2022/02/23 05:09:46;;;;;;;7.97;1.50;;;7.00;99.90;;;;;;4966387;28;20796;-79
2022/02/23 05:12:11;;;;;;;6.43;2.33;;;7.00;99.90;;;;;;4981216;28;20209;-79
2022/02/23 05:14:38;;;;;;;8.55;1.63;;;7.00;99.90;;;;;;4974668;28;20175;-78
2022/02/23 05:17:04;;;;;;;6.50;2.00;;;7.00;99.90;;;;;;4985411;28;20534;-79
2022/02/23 05:19:31;;;;;;;8.98;1.80;;;7.00;99.90;;;;;;4983245;28;20610;-79
2022/02/23 05:21:58;;;;;;;7.90;1.58;;;7.00;99.90;;;;;;4983150;28;20732;-79
2022/02/23 05:24:23;;;;;;;12.30;2.23;;;7.00;99.90;;;;;;4982177;28;20214;-79
2022/02/23 05:26:50;;;;;;;6.93;1.77;;;6.90;99.90;;;;;;4983367;28;20665;-79
2022/02/23 05:29:15;;;;;;;3.35;1.40;;;6.90;99.90;;;;;;4985468;28;20755;-79
2022/02/23 05:31:41;;;;;;;6.70;1.97;;;6.90;99.90;;;;;;4968246;28;20226;-79
2022/02/23 05:34:07;;;;;;;8.27;2.30;;;6.90;99.90;;;;;;4984636;28;20186;-79
2022/02/23 05:36:34;;;;;;;9.95;1.92;;;6.90;99.90;;;;;;4989770;28;21159;-79
2022/02/23 05:38:59;;;;;;;4.93;1.50;;;6.90;99.90;;;;;;4991074;28;20200;-79
2022/02/23 05:41:25;;;;;;;4.37;2.00;;;6.90;99.90;;;;;;4997902;28;20187;-79
2022/02/23 05:43:51;;;;;;;3.83;1.50;;;6.80;99.90;;;;;;4995268;28;20176;-79
2022/02/23 05:46:18;;;;;;;7.20;2.60;;;6.80;99.90;;;;;;4998885;28;20186;-79
2022/02/23 05:48:45;;;;;;;5.18;1.60;;;6.80;99.90;;;;;;4989869;28;20206;-78
2022/02/23 05:51:31;;;;;;;8.20;1.83;;;6.80;99.90;;;;;;4986961;28;20214;-78
2022/02/23 05:53:58;;;;;;;4.40;1.50;;;6.80;99.90;;;;;;4970369;28;20186;-78
2022/02/23 05:56:26;;;;;;;9.15;1.90;;;6.80;99.90;;;;;;5001032;28;20187;-78
2022/02/23 05:58:54;;;;;;;7.47;2.17;;;6.80;99.90;;;;;;4999947;28;20659;-78
2022/02/23 06:01:20;;;;;;;6.97;2.17;;;6.80;99.90;;;;;;4992566;28;20179;-78
2022/02/23 06:03:46;;;;;;;5.10;1.92;;;6.80;99.90;;;;;;5000143;28;20187;-79
2022/02/23 06:06:11;;;;;;;7.60;1.77;;;6.70;99.90;;;;;;4992295;28;20175;-79
2022/02/23 06:08:38;;;;;;;8.70;2.50;;;6.80;99.90;;;;;;4987982;28;20207;-80
2022/02/23 06:11:05;;;;;;;5.20;2.10;;;6.70;99.90;;;;;;4968378;28;20330;-79
2022/02/23 06:13:31;;;;;;;15.27;3.58;;;6.80;99.90;;;;;;4971324;28;20195;-79
2022/02/23 06:15:56;;;;;;;7.37;3.67;;;6.70;99.90;;;;;;4988440;28;20654;-79
2022/02/23 06:18:22;;;;;;;7.37;3.63;;;6.70;99.90;;;;;;4990976;28;20623;-79
2022/02/23 06:20:48;;;;;;;8.37;4.60;;;6.80;99.90;;;;;;4988321;28;20569;-79
2022/02/23 06:23:14;;;;;;;11.70;4.30;;;6.80;99.90;;;;;;4992627;28;20949;-79
2022/02/23 06:25:40;;;;;;;7.43;3.20;;;6.70;99.90;;;;;;4986833;28;20187;-79
2022/02/23 06:28:06;;;;;;;8.43;3.70;;;6.80;99.90;;;;;;4983965;28;20187;-79
2022/02/23 06:30:32;;;;;;;8.13;3.17;;;6.80;99.90;;;;;;4987120;28;21255;-80
2022/02/23 06:32:57;;;;;;;6.68;2.88;;;6.70;99.90;;;;;;4983472;28;20206;-80
2022/02/23 06:35:27;;;;;;;7.90;2.67;;;6.80;99.90;;;;;;4993101;28;20262;-80
2022/02/23 06:37:53;;;;;;;6.65;2.63;;;6.80;99.90;;;;;;4991456;28;20575;-78
2022/02/23 06:40:20;;;;;;;9.48;2.70;;;6.80;99.90;;;;;;4982444;28;20206;-78
2022/02/23 06:42:46;;;;;;;8.07;2.50;;;6.80;99.90;;;;;;4989207;28;20191;-78
2022/02/23 06:45:11;;;;;;;9.45;3.05;;;6.80;99.90;;;;;;4970302;28;20203;-78
2022/02/23 06:47:37;;;;;;;7.90;3.50;;;6.80;99.90;;;;;;4968786;28;20610;-78
2022/02/23 06:50:04;;;;;;;8.83;3.83;;;6.80;99.90;;;;;;4988156;28;20633;-79
2022/02/23 06:52:30;;;;;;;10.40;4.15;;;6.80;99.90;;;;;;4985044;28;20179;-79
2022/02/23 06:54:57;;;;;;;6.68;3.95;;;6.90;99.90;;;;;;4982025;28;20214;-78
2022/02/23 06:57:22;;;;;;;10.02;2.65;;;6.90;99.90;;;;;;4986070;28;20214;-78
2022/02/23 06:59:52;;;;;;;10.97;3.60;;;6.90;99.90;;;;;;4966590;28;20238;-79
2022/02/23 07:02:18;;;;;;;9.60;3.30;;;7.00;99.90;;;;;;4966265;28;20633;-77
2022/02/23 07:04:43;;;;;;;8.77;1.80;;;7.00;99.90;;;;;;4983091;28;20238;-77
2022/02/23 07:07:10;;;;;;;5.60;2.33;;;7.10;99.90;;;;;;4984724;28;20627;-77
2022/02/23 07:09:35;;;;;;;8.55;2.97;;;7.10;99.90;;;;;;4974444;28;20219;-78
2022/02/23 07:12:03;;;;;;;5.90;2.13;;;7.10;99.90;;;;;;4968281;28;20182;-76
2022/02/23 07:14:28;;;;;;;12.75;2.65;;;7.20;99.90;;;;;;4971572;28;20278;-76
2022/02/23 07:16:54;;;;;;;8.00;2.80;;;7.20;99.90;;;;;;4971854;28;20259;-77
2022/02/23 07:19:21;;;;;;;6.70;2.13;;;7.20;99.90;;;;;;4987058;28;20275;-77
2022/02/23 07:21:50;;;;;;;10.10;3.25;;;7.30;99.90;;;;;;4966052;28;20579;-78
2022/02/23 07:24:15;;;;;;;8.15;2.13;;;7.30;99.90;;;;;;4986349;28;20203;-78
2022/02/23 07:26:41;;;;;;;10.77;2.60;;;7.40;99.90;;;;;;4984362;28;20218;-78
2022/02/23 07:29:07;;;;;;;7.47;2.80;;;7.40;99.90;;;;;;4964249;28;20211;-77
2022/02/23 07:31:33;;;;;;;7.03;2.50;;;7.50;99.90;;;;;;4985541;28;20267;-77
2022/02/23 07:34:00;;;;;;;7.88;2.33;;;7.50;99.90;;;;;;4983199;28;20680;-77
2022/02/23 07:36:26;;;;;;;10.35;2.63;;;7.50;99.90;;;;;;4982837;28;20222;-77
2022/02/23 07:38:53;;;;;;;7.40;2.00;;;7.60;99.90;;;;;;4983230;28;20758;-77
2022/02/23 07:41:23;;;;;;;10.23;2.67;;;7.70;99.90;;;;;;4984858;28;20521;-77
2022/02/23 07:43:50;;;;;;;5.95;1.92;;;7.70;99.90;;;;;;4982536;28;20234;-76
2022/02/23 07:46:16;;;;;;;10.65;1.92;;;7.80;99.90;;;;;;4993881;28;20246;-78
2022/02/23 07:48:42;;;;;;;7.45;2.20;;;7.80;99.90;;;;;;4983319;28;20206;-78
2022/02/23 07:51:09;;;;;;;6.47;2.10;;;7.90;99.90;;;;;;4981426;28;20175;-76
2022/02/23 07:53:35;;;;;;;5.25;1.77;;;7.90;99.90;;;;;;4983423;28;20690;-77
2022/02/23 07:56:01;;;;;;;4.93;1.70;;;8.00;99.90;;;;;;4953612;28;20266;-77
2022/02/23 07:58:27;;;;;;;4.45;1.90;;;8.00;99.90;;;;;;4989761;28;20259;-77
2022/02/23 08:00:54;;;;;;;6.60;2.57;;;8.10;99.90;;;;;;4982023;28;20618;-77
2022/02/23 08:03:20;;;;;;;7.97;1.63;;;8.20;99.90;;;;;;4986811;28;20198;-78
2022/02/23 08:05:46;;;;;;;6.80;2.20;;;8.20;99.90;;;;;;4993110;28;20167;-78
2022/02/23 08:08:13;;;;;;;5.55;1.85;;;8.30;99.90;;;;;;4970120;28;20656;-77
2022/02/23 08:10:39;;;;;;;6.80;2.10;;;8.40;99.90;;;;;;4976650;28;20698;-78
2022/02/23 08:13:07;;;;;;;7.15;2.03;;;8.50;99.90;;;;;;4992304;28;20271;-77
2022/02/23 08:21:01;;;;;;;9.07;2.25;;;8.70;99.90;;;;;;4986134;28;20558;-78
2022/02/23 08:23:27;;;;;;;4.77;1.90;;;8.80;99.90;;;;;;5000544;28;20183;-79
2022/02/23 08:25:53;;;;;;;8.90;2.50;;;8.90;99.90;;;;;;4967719;28;20605;-78
2022/02/23 08:28:19;;;;;;;8.13;2.67;;;9.00;99.90;;;;;;4983812;28;20618;-78
2022/02/23 08:30:48;;;;;;;7.07;2.38;;;9.00;99.90;;;;;;4982251;28;20214;-78
2022/02/23 08:33:14;;;;;;;5.90;1.63;;;9.10;99.90;;;;;;4981619;28;20179;-78
2022/02/23 08:35:42;;;;;;;6.13;2.58;;;9.20;99.90;;;;;;4984256;28;20179;-78
2022/02/23 08:38:11;;;;;;;7.63;2.97;;;9.40;99.90;;;;;;4981129;28;20183;-78
2022/02/23 08:40:41;;;;;;;5.47;1.90;;;9.60;99.90;;;;;;4981525;28;20234;-78
2022/02/23 08:43:07;;;;;;;7.80;2.63;;;10.10;99.90;;;;;;4983358;28;20590;-78
2022/02/23 08:45:33;;;;;;;9.30;3.20;;;10.80;99.90;;;;;;4980039;28;20671;-78
2022/02/23 08:48:01;;;;;;;7.83;2.60;;;11.70;99.90;;;;;;4983632;28;20198;-77
2022/02/23 08:50:28;;;;;;;6.87;2.30;;;12.70;99.90;;;;;;4948849;28;20733;-77
2022/02/23 08:52:55;;;;;;;11.13;2.80;;;13.90;99.90;;;;;;4982178;28;20649;-77
2022/02/23 08:55:21;;;;;;;6.80;2.23;;;15.00;99.90;;;;;;4980828;28;20621;-79
2022/02/23 08:57:47;;;;;;;9.30;2.60;;;16.10;99.90;;;;;;4981823;28;20963;-77
2022/02/23 09:00:13;;;;;;;4.53;1.90;;;17.20;99.90;;;;;;4974504;28;20630;-80
2022/02/23 09:02:39;;;;;;;4.53;1.53;;;18.30;99.90;;;;;;4984145;28;20681;-79
2022/02/23 09:05:05;;;;;;;4.93;2.03;;;19.40;99.90;;;;;;4978716;28;20719;-77
2022/02/23 09:07:31;;;;;;;7.70;1.93;;;20.40;99.90;;;;;;4981740;28;20649;-79
2022/02/23 09:09:57;;;;;;;5.23;2.13;;;21.40;99.90;;;;;;4981086;28;20766;-78
2022/02/23 09:12:24;;;;;;;7.43;1.90;;;22.20;99.90;;;;;;5000906;28;21118;-78
2022/02/23 09:14:54;;;;;;;3.70;1.53;;;22.90;99.90;;;;;;5000123;28;20590;-78
2022/02/23 09:17:20;;;;;;;6.30;2.30;;;23.50;99.90;;;;;;4987004;28;20586;-78
2022/02/23 09:19:46;;;;;;;7.77;2.60;;;24.10;99.90;;;;;;4980105;28;20660;-78
2022/02/23 09:22:12;;;;;;;6.23;1.60;;;24.70;99.90;;;;;;4982753;28;20583;-77
2022/02/23 09:24:38;;;;;;;5.13;1.67;;;25.30;99.90;;;;;;4979234;28;21256;-77
2022/02/23 09:27:04;;;;;;;7.00;2.10;;;25.80;99.90;;;;;;4989450;28;20582;-75
2022/02/23 09:29:35;;;;;;;8.97;2.13;;;26.20;99.90;;;;;;4984064;28;20729;-76
2022/02/23 09:32:02;;;;;;;7.97;1.60;;;26.60;99.90;;;;;;4980458;28;20667;-77
2022/02/23 09:34:28;;;;;;;6.80;1.50;;;26.90;99.90;;;;;;4982296;28;21226;-77
2022/02/23 09:36:54;;;;;;;4.50;1.93;;;27.20;99.90;;;;;;4986983;28;20685;-77
2022/02/23 09:39:20;;;;;;;3.87;1.40;;;27.50;99.90;;;;;;4983872;28;20583;-77
2022/02/23 09:41:46;;;;;;;4.77;1.30;;;27.70;99.90;;;;;;4983009;28;20623;-77
2022/02/23 09:44:19;;;;;;;7.17;1.90;;;27.90;99.90;;;;;;4982161;28;20630;-78
2022/02/23 09:46:45;;;;;;;6.27;1.80;;;28.20;99.90;;;;;;4982924;28;20590;-79
2022/02/23 09:49:12;;;;;;;4.47;1.40;;;28.50;99.90;;;;;;4973119;28;20656;-79
2022/02/23 09:51:39;;;;;;;4.33;1.63;;;28.80;99.90;;;;;;4982997;28;20949;-78
2022/02/23 09:54:05;;;;;;;4.83;1.67;;;29.10;99.70;;;;;;4991568;28;20679;-77
2022/02/23 09:56:32;;;;;;;7.00;1.43;;;29.30;98.70;;;;;;4981708;28;20821;-77
2022/02/23 09:58:59;;;;;;;4.70;1.40;;;29.30;97.20;;;;;;4979020;28;20236;-78
2022/02/23 10:01:27;;;;;;;7.17;1.60;;;29.50;96.00;;;;;;4992322;28;20596;-78
2022/02/23 10:03:54;;;;;;;3.57;1.47;;;29.60;95.30;;;;;;4981211;28;20658;-78
2022/02/23 10:06:41;;;;;;;4.33;1.30;;;29.70;94.30;;;;;;4983214;28;21107;-78
2022/02/23 10:09:10;;;;;;;4.37;1.30;;;29.90;93.30;;;;;;4981606;28;20641;-79
2022/02/23 10:11:38;;;;;;;4.00;1.47;;;30.00;92.30;;;;;;4978894;28;20588;-77
2022/02/23 10:14:04;;;;;;;4.90;1.90;;;30.10;91.40;;;;;;4983620;28;20688;-79
2022/02/23 10:16:36;;;;;;;4.07;0.90;;;30.20;90.80;;;;;;4985742;28;20648;-78
2022/02/23 10:19:17;;;;;;;2.60;1.30;;;30.30;87.90;;;;;;4983462;28;20690;-78
2022/02/23 10:21:52;;;;;;;4.60;2.23;;;30.30;86.00;;;;;;4982626;28;20688;-78
2022/02/23 10:24:22;;;;;;;3.90;1.20;;;30.40;86.90;;;;;;4983046;28;20678;-79
2022/02/23 10:27:03;;;;;;;3.80;1.40;;;30.30;84.20;;;;;;4988505;28;20623;-79
2022/02/23 10:29:47;;;;;;;2.53;0.90;;;30.30;78.30;;;;;;4984965;28;20752;-78
2022/02/23 10:32:14;;;;;;;4.37;1.60;;;30.10;80.50;;;;;;4986690;28;20681;-78
2022/02/23 10:34:48;;;;;;;4.90;1.27;;;29.90;80.70;;;;;;4991995;28;20663;-80
2022/02/23 10:37:16;;;;;;;6.33;1.10;;;29.70;78.80;;;;;;4959519;28;21151;-80
2022/02/23 10:39:52;;;;;;;3.60;1.10;;;29.50;79.10;;;;;;4991364;28;21325;-79
2022/02/23 10:42:24;;;;;;;4.90;1.47;;;29.20;77.70;;;;;;4991277;28;20680;-79
2022/02/23 10:44:51;;;;;;;5.47;1.73;;;28.90;77.10;;;;;;4988733;28;20614;-79
2022/02/23 10:47:29;;;;;;;4.13;1.10;;;28.60;76.70;;;;;;4972676;28;20661;-80
2022/02/23 10:50:15;;;;;;;4.93;1.07;;;28.30;73.40;;;;;;4992413;28;20673;-79
2022/02/23 10:52:43;;;;;;;4.53;1.40;;;28.00;74.60;;;;;;4988069;28;20906;-79
2022/02/23 10:55:15;;;;;;;3.03;1.10;;;27.70;74.00;;;;;;4976480;28;20586;-78
2022/02/23 10:57:56;;;;;;;3.20;1.03;;;27.40;72.20;;;;;;4984965;28;20689;-78
2022/02/23 11:00:27;;;;;;;4.50;1.10;;;27.20;72.20;;;;;;4983668;28;20604;-78
2022/02/23 11:02:54;;;;;;;2.37;1.00;;;27.00;72.40;;;;;;4982444;28;20575;-79
2022/02/23 11:05:24;;;;;;;3.10;1.10;;;26.90;73.00;;;;;;4994925;28;20571;-81
2022/02/23 11:08:01;;;;;;;2.67;1.00;;;26.90;72.70;;;;;;4970817;28;21251;-80
2022/02/23 11:10:27;;;;;;;5.07;1.27;;;26.70;70.70;;;;;;4985308;28;20664;-77
2022/02/23 11:12:56;;;;;;;2.40;0.97;;;26.60;70.40;;;;;;4986105;28;20574;-78
2022/02/23 11:15:24;;;;;;;4.67;1.23;;;26.50;70.90;;;;;;4986104;28;20179;-78
2022/02/23 11:17:55;;;;;;;4.07;1.80;;;26.40;70.20;;;;;;4983835;28;20650;-77
2022/02/23 11:20:26;;;;;;;4.20;0.90;;;26.20;68.40;;;;;;4964008;28;20624;-78
2022/02/23 11:22:56;;;;;;;4.60;1.23;;;26.10;68.50;;;;;;4996020;28;20605;-80
2022/02/23 11:25:37;;;;;;;4.00;1.20;;;26.00;69.10;;;;;;4985158;28;20942;-78
2022/02/23 11:28:22;;;;;;;3.87;1.33;;;25.80;68.30;;;;;;4998652;28;20599;-80
2022/02/23 11:30:51;;;;;;;4.47;1.50;;;25.80;68.90;;;;;;4964300;28;20618;-78
2022/02/23 11:33:22;;;;;;;6.43;1.37;;;25.70;70.50;;;;;;4978023;28;20949;-78
2022/02/23 11:35:51;;;;;;;3.70;1.10;;;25.60;69.50;;;;;;4987201;28;20585;-77
2022/02/23 11:38:18;;;;;;;6.27;1.43;;;25.50;68.80;;;;;;4985680;28;20592;-78
2022/02/23 11:40:54;;;;;;;4.70;1.07;;;25.40;69.70;;;;;;4983699;28;21237;-78
2022/02/23 11:43:41;;;;;;;6.27;1.10;;;25.30;67.10;;;;;;4984171;28;20624;-77
2022/02/23 11:46:26;;;;;;;6.03;1.40;;;25.20;66.70;;;;;;4985173;28;20628;-78
2022/02/23 11:48:56;;;;;;;3.10;1.00;;;25.00;67.90;;;;;;4975022;28;20619;-76
2022/02/23 11:52:00;;;;;;;3.73;0.90;;;24.90;68.70;;;;;;4987588;28;20618;-76
2022/02/23 11:54:49;;;;;;;5.50;1.93;;;24.90;67.40;;;;;;4983979;28;20623;-77
2022/02/23 12:00:44;;;;;;;4.07;0.90;;;24.60;67.20;;;;;;4992871;28;20653;-76
2022/02/23 12:03:26;;;;;;;1.87;0.87;;;24.30;67.20;;;;;;4996679;28;20722;-77
2022/02/23 12:05:51;;;;;;;3.40;1.17;;;24.00;66.30;;;;;;4988578;28;20589;-77
2022/02/23 12:08:32;;;;;;;4.53;1.73;;;23.80;66.90;;;;;;4980986;28;21149;-78
2022/02/23 12:11:17;;;;;;;8.37;3.50;;;23.60;64.50;;;;;;4982195;28;20183;-79
2022/02/23 12:13:45;;;;;;;5.73;2.70;;;23.40;65.40;;;;;;4984255;28;20570;-78
2022/02/23 12:16:27;;;;;;;3.60;1.37;;;23.10;65.10;;;;;;4982897;28;20693;-78
2022/02/23 12:18:59;;;;;;;5.20;1.13;;;22.80;65.00;;;;;;4985025;28;20634;-79
2022/02/23 12:21:42;;;;;;;4.40;1.10;;;22.60;65.60;;;;;;4986480;28;20590;-78
2022/02/23 12:24:18;;;;;;;3.30;1.20;;;22.30;64.20;;;;;;4982039;28;20906;-78
2022/02/23 12:26:45;;;;;;;5.70;2.30;;;22.10;65.00;;;;;;4996077;28;21161;-78
2022/02/23 12:29:14;;;;;;;2.43;0.90;;;21.80;65.00;;;;;;4979560;28;20669;-77
2022/02/23 12:31:44;;;;;;;5.40;1.50;;;21.40;63.80;;;;;;4980237;28;20586;-78
2022/02/23 12:34:15;;;;;;;3.80;1.00;;;21.00;63.20;;;;;;4983289;28;20574;-78
2022/02/23 12:36:51;;;;;;;4.13;0.90;;;20.60;62.80;;;;;;4996195;28;20586;-77
2022/02/23 12:39:22;;;;;;;3.03;1.00;;;20.20;62.50;;;;;;4981489;28;20673;-77
2022/02/23 12:41:56;;;;;;;6.33;1.10;;;19.80;62.10;;;;;;4965616;28;20621;-77
2022/02/23 12:44:27;;;;;;;2.63;0.90;;;19.40;62.70;;;;;;4984736;28;20757;-77
2022/02/23 12:46:55;;;;;;;5.97;2.43;;;19.00;63.10;;;;;;4980439;28;21163;-77
2022/02/23 12:49:23;;;;;;;7.97;3.87;;;18.80;63.80;;;;;;4985664;28;20629;-79
2022/02/23 12:51:51;;;;;;;5.33;3.50;;;18.50;63.80;;;;;;4985350;28;20595;-79
2022/02/23 12:54:19;;;;;;;8.43;3.60;;;18.20;63.90;;;;;;4989291;28;20599;-80
2022/02/23 12:56:57;;;;;;;13.80;7.90;;;18.00;64.00;;;;;;4995531;28;20610;-79
2022/02/23 12:59:30;;;;;;;6.53;3.43;;;17.70;63.90;;;;;;4982983;28;20658;-77
2022/02/23 13:02:03;;;;;;;8.87;4.80;;;17.50;64.40;;;;;;4981019;28;20609;-78
2022/02/23 13:04:31;;;;;;;4.13;2.03;;;17.30;64.40;;;;;;4988549;28;21031;-78